createdAt,value
2018-02-13T00:00:22.725Z,100640.87
2018-02-13T00:02:55.244Z,100651.09
2018-02-13T00:05:27.740Z,100645.25
2018-02-13T00:08:00.270Z,100643.55
2018-02-13T00:10:32.790Z,100646.08
2018-02-13T00:13:05.302Z,100651.05
2018-02-13T00:15:37.871Z,100651.93
2018-02-13T00:18:10.375Z,100648.56
2018-02-13T00:20:42.901Z,100648.53
2018-02-13T00:23:16.336Z,100648.11
2018-02-13T00:25:48.932Z,100653.15
2018-02-13T00:28:21.429Z,100651.94
2018-02-13T00:30:53.953Z,100652.81
2018-02-13T00:33:26.455Z,100650.67
2018-02-13T00:35:58.973Z,100663.25
2018-02-13T00:38:31.471Z,100653.07
2018-02-13T00:41:03.996Z,100653.11
2018-02-13T00:43:36.551Z,100648.19
2018-02-13T00:46:09.075Z,100649.45
2018-02-13T00:48:41.583Z,100654.49
2018-02-13T00:51:14.098Z,100646.47
2018-02-13T00:53:46.604Z,100653.19
2018-02-13T00:56:19.119Z,100649.38
2018-02-13T00:58:51.618Z,100648.98
2018-02-13T01:01:24.132Z,100652.35
2018-02-13T01:03:57.265Z,100645.62
2018-02-13T01:06:29.787Z,100646.05
2018-02-13T01:09:02.299Z,100646.05
2018-02-13T01:11:34.821Z,100642.67
2018-02-13T01:14:07.332Z,100648.95
2018-02-13T01:16:39.857Z,100643.02
2018-02-13T01:19:12.352Z,100640.41
2018-02-13T01:21:44.892Z,100645.45
2018-02-13T01:24:17.388Z,100639.14
2018-02-13T01:26:49.914Z,100639.07
2018-02-13T01:29:22.414Z,100649.20
2018-02-13T01:31:54.937Z,100645.84
2018-02-13T01:34:27.446Z,100643.73
2018-02-13T01:36:59.976Z,100643.98
2018-02-13T01:39:32.476Z,100646.08
2018-02-13T01:42:05.022Z,100654.53
2018-02-13T01:44:37.523Z,100646.03
2018-02-13T01:47:10.049Z,100651.41
2018-02-13T01:49:42.555Z,100653.14
2018-02-13T01:52:15.093Z,100652.72
2018-02-13T01:54:48.429Z,100651.92
2018-02-13T01:57:20.947Z,100653.28
2018-02-13T01:59:53.441Z,100653.28
2018-02-13T02:02:25.961Z,100650.20
2018-02-13T02:04:58.491Z,100647.67
2018-02-13T02:07:30.998Z,100652.33
2018-02-13T02:10:03.503Z,100650.56
2018-02-13T02:12:36.025Z,100651.45
2018-02-13T02:15:08.706Z,100654.81
2018-02-13T02:17:41.271Z,100647.25
2018-02-13T02:20:13.796Z,100648.47
2018-02-13T02:22:46.311Z,100653.52
2018-02-13T02:25:18.830Z,100652.62
2018-02-13T02:27:51.348Z,100649.67
2018-02-13T02:30:23.842Z,100652.20
2018-02-13T02:32:56.995Z,100653.84
2018-02-13T02:35:29.556Z,100651.27
2018-02-13T02:38:02.116Z,100649.17
2018-02-13T02:40:34.620Z,100647.48
2018-02-13T02:43:07.313Z,100650.33
2018-02-13T02:45:39.807Z,100649.53
2018-02-13T02:48:12.332Z,100647.02
2018-02-13T02:50:44.830Z,100649.53
2018-02-13T02:53:17.355Z,100650.74
2018-02-13T02:55:49.861Z,100646.92
2018-02-13T02:58:22.457Z,100651.58
2018-02-13T03:00:54.953Z,100647.76
2018-02-13T03:03:27.483Z,100645.28
2018-02-13T03:05:59.982Z,100654.10
2018-02-13T03:08:32.512Z,100644.87
2018-02-13T03:11:05.034Z,100649.44
2018-02-13T03:13:37.587Z,100653.22
2018-02-13T03:16:10.113Z,100649.02
2018-02-13T03:18:42.631Z,100652.39
2018-02-13T03:21:15.131Z,100657.42
2018-02-13T03:23:47.643Z,100652.84
2018-02-13T03:26:20.157Z,100655.27
2018-02-13T03:28:52.681Z,100653.11
2018-02-13T03:31:26.321Z,100654.84
2018-02-13T03:33:59.446Z,100652.28
2018-02-13T03:36:31.946Z,100657.36
2018-02-13T03:39:04.472Z,100653.53
2018-02-13T03:41:36.978Z,100656.47
2018-02-13T03:44:09.518Z,100660.30
2018-02-13T03:46:42.032Z,100659.42
2018-02-13T03:49:14.567Z,100658.16
2018-02-13T03:51:47.139Z,100657.27
2018-02-13T03:54:19.631Z,100654.74
2018-02-13T03:56:52.144Z,100655.59
2018-02-13T03:59:24.644Z,100646.39
2018-02-13T04:01:57.171Z,100646.40
2018-02-13T04:04:29.673Z,100644.41
2018-02-13T04:07:02.245Z,100642.29
2018-02-13T04:09:34.734Z,100646.35
2018-02-13T04:12:07.260Z,100645.46
2018-02-13T04:14:39.765Z,100647.18
2018-02-13T04:17:12.310Z,100647.61
2018-02-13T04:19:44.802Z,100652.32
2018-02-13T04:22:17.342Z,100650.66
2018-02-13T04:24:49.855Z,100651.28
2018-02-13T04:27:22.388Z,100649.61
2018-02-13T04:29:54.899Z,100654.22
2018-02-13T04:32:27.413Z,100645.41
2018-02-13T04:34:59.914Z,100650.55
2018-02-13T04:37:32.441Z,100642.94
2018-02-13T04:40:04.950Z,100650.02
2018-02-13T04:42:37.477Z,100642.84
2018-02-13T04:45:09.984Z,100645.61
2018-02-13T04:47:42.509Z,100647.30
2018-02-13T04:50:15.015Z,100640.94
2018-02-13T04:52:47.547Z,100641.35
2018-02-13T04:55:20.047Z,100643.28
2018-02-13T04:57:52.569Z,100644.34
2018-02-13T05:00:25.069Z,100642.41
2018-02-13T05:02:57.591Z,100646.52
2018-02-13T05:05:30.081Z,100645.30
2018-02-13T05:08:02.604Z,100648.70
2018-02-13T05:10:35.091Z,100645.34
2018-02-13T05:13:07.611Z,100645.19
2018-02-13T05:15:40.104Z,100648.66
2018-02-13T05:18:12.632Z,100642.99
2018-02-13T05:20:45.141Z,100646.98
2018-02-13T05:23:17.644Z,100638.11
2018-02-13T05:25:50.145Z,100636.91
2018-02-13T05:28:22.676Z,100634.75
2018-02-13T05:30:55.180Z,100638.48
2018-02-13T05:33:27.691Z,100634.95
2018-02-13T05:36:00.196Z,100644.61
2018-02-13T05:38:32.709Z,100641.98
2018-02-13T05:41:05.204Z,100644.09
2018-02-13T05:43:37.743Z,100639.83
2018-02-13T05:46:10.265Z,100639.58
2018-02-13T05:48:42.772Z,100643.83
2018-02-13T05:51:15.266Z,100645.19
2018-02-13T05:53:47.785Z,100645.55
2018-02-13T05:56:20.287Z,100644.72
2018-02-13T05:58:52.810Z,100647.66
2018-02-13T06:01:25.298Z,100646.44
2018-02-13T06:03:57.815Z,100645.62
2018-02-13T06:06:30.308Z,100653.11
2018-02-13T06:09:02.837Z,100659.67
2018-02-13T06:11:35.329Z,100657.27
2018-02-13T06:14:07.844Z,100652.65
2018-02-13T06:16:40.342Z,100657.31
2018-02-13T06:19:12.863Z,100660.63
2018-02-13T06:21:45.368Z,100655.52
2018-02-13T06:24:17.904Z,100660.97
2018-02-13T06:26:50.401Z,100656.88
2018-02-13T06:29:22.927Z,100663.55
2018-02-13T06:31:55.432Z,100654.31
2018-02-13T06:34:28.007Z,100659.05
2018-02-13T06:37:00.504Z,100653.66
2018-02-13T06:39:33.020Z,100647.70
2018-02-13T06:42:05.525Z,100651.28
2018-02-13T06:44:38.311Z,100647.50
2018-02-13T06:47:10.825Z,100647.97
2018-02-13T06:49:43.348Z,100643.83
2018-02-13T06:52:17.901Z,100647.71
2018-02-13T06:54:50.415Z,100651.80
2018-02-13T06:57:22.912Z,100653.91
2018-02-13T06:59:55.427Z,100646.34
2018-02-13T07:02:27.933Z,100650.17
2018-02-13T07:05:00.450Z,100649.02
2018-02-13T07:07:32.956Z,100659.69
2018-02-13T07:10:05.471Z,100666.03
2018-02-13T07:12:39.952Z,100663.05
2018-02-13T07:15:12.467Z,100662.58
2018-02-13T07:17:47.570Z,100662.61
2018-02-13T07:20:20.096Z,100656.75
2018-02-13T07:22:52.611Z,100662.68
2018-02-13T07:25:25.184Z,100659.22
2018-02-13T07:27:57.715Z,100664.83
2018-02-13T07:30:31.247Z,100666.15
2018-02-13T07:33:03.759Z,100666.77
2018-02-13T07:35:36.273Z,100665.55
2018-02-13T07:38:08.792Z,100666.44
2018-02-13T07:40:41.294Z,100670.78
2018-02-13T07:43:13.825Z,100666.12
2018-02-13T07:45:46.334Z,100673.03
2018-02-13T07:48:18.922Z,100673.45
2018-02-13T07:50:51.433Z,100669.66
2018-02-13T07:53:24.057Z,100677.19
2018-02-13T07:55:56.557Z,100672.31
2018-02-13T07:58:29.300Z,100684.81
2018-02-13T08:01:01.818Z,100687.05
2018-02-13T08:03:34.350Z,100687.55
2018-02-13T08:06:06.970Z,100685.78
2018-02-13T08:08:40.212Z,100692.28
2018-02-13T08:11:12.790Z,100697.38
2018-02-13T08:13:45.320Z,100691.36
2018-02-13T08:16:18.209Z,100691.06
2018-02-13T08:18:50.828Z,100683.11
2018-02-13T08:21:25.518Z,100684.16
2018-02-13T08:23:58.259Z,100685.48
2018-02-13T08:26:30.773Z,100685.16
2018-02-13T08:29:03.377Z,100682.99
2018-02-13T08:31:35.894Z,100678.60
2018-02-13T08:34:08.415Z,100687.66
2018-02-13T08:36:40.919Z,100686.73
2018-02-13T08:39:13.446Z,100682.42
2018-02-13T08:41:45.973Z,100683.99
2018-02-13T08:44:18.545Z,100688.37
2018-02-13T08:46:51.097Z,100680.00
2018-02-13T08:49:23.659Z,100677.73
2018-02-13T08:51:56.567Z,100679.77
2018-02-13T08:54:29.097Z,100684.13
2018-02-13T08:57:01.652Z,100676.20
2018-02-13T08:59:34.163Z,100671.21
2018-02-13T09:02:06.663Z,100676.71
2018-02-13T09:04:39.204Z,100674.62
2018-02-13T09:07:11.753Z,100675.91
2018-02-13T09:09:44.275Z,100670.05
2018-02-13T09:12:16.776Z,100675.56
2018-02-13T09:14:49.307Z,100662.09
2018-02-13T09:17:21.807Z,100658.30
2018-02-13T09:19:54.383Z,100653.63
2018-02-13T09:22:26.878Z,100661.25
2018-02-13T09:24:59.443Z,100649.44
2018-02-13T09:27:31.968Z,100651.06
2018-02-13T09:30:04.496Z,100653.60
2018-02-13T09:32:37.000Z,100645.54
2018-02-13T09:35:09.531Z,100648.53
2018-02-13T09:37:42.055Z,100641.70
2018-02-13T09:40:14.578Z,100648.53
2018-02-13T09:42:47.090Z,100646.41
2018-02-13T09:45:19.626Z,100643.45
2018-02-13T09:47:52.129Z,100643.03
2018-02-13T09:50:24.644Z,100645.16
2018-02-13T09:52:57.137Z,100643.02
2018-02-13T09:55:29.661Z,100635.39
2018-02-13T09:58:02.162Z,100637.13
2018-02-13T10:00:34.903Z,100638.37
2018-02-13T10:03:07.620Z,100640.50
2018-02-13T10:05:40.153Z,100643.45
2018-02-13T10:08:12.644Z,100638.41
2018-02-13T10:10:45.162Z,100637.13
2018-02-13T10:13:17.670Z,100640.98
2018-02-13T10:15:50.184Z,100635.45
2018-02-13T10:18:22.699Z,100631.69
2018-02-13T10:20:55.251Z,100627.88
2018-02-13T10:23:27.758Z,100630.41
2018-02-13T10:26:00.284Z,100630.00
2018-02-13T10:28:32.795Z,100632.95
2018-02-13T10:31:05.320Z,100630.80
2018-02-13T10:33:37.844Z,100640.91
2018-02-13T10:36:10.365Z,100629.52
2018-02-13T10:38:42.863Z,100624.04
2018-02-13T10:41:15.390Z,100630.77
2018-02-13T10:43:47.874Z,100623.51
2018-02-13T10:46:20.417Z,100627.76
2018-02-13T10:48:52.925Z,100623.95
2018-02-13T10:51:25.449Z,100625.17
2018-02-13T10:53:57.944Z,100625.25
2018-02-13T10:56:30.466Z,100625.61
2018-02-13T10:59:02.988Z,100629.78
2018-02-13T11:01:37.534Z,100623.14
2018-02-13T11:04:10.063Z,100623.56
2018-02-13T11:06:42.556Z,100619.27
2018-02-13T11:09:15.075Z,100626.59
2018-02-13T11:11:47.577Z,100621.41
2018-02-13T11:14:20.086Z,100624.74
2018-02-13T11:16:52.590Z,100621.26
2018-02-13T11:19:25.123Z,100621.61
2018-02-13T11:21:57.618Z,100622.42
2018-02-13T11:24:30.134Z,100626.53
2018-02-13T11:27:02.636Z,100622.61
2018-02-13T11:29:35.171Z,100626.92
2018-02-13T11:32:07.666Z,100621.78
2018-02-13T11:34:40.185Z,100615.98
2018-02-13T11:37:12.688Z,100620.52
2018-02-13T11:39:45.207Z,100615.94
2018-02-13T11:42:17.703Z,100613.30
2018-02-13T11:44:50.272Z,100608.83
2018-02-13T11:47:22.766Z,100610.05
2018-02-13T11:49:55.284Z,100602.87
2018-02-13T11:52:27.775Z,100605.70
2018-02-13T11:55:00.287Z,100599.94
2018-02-13T11:57:32.776Z,100599.19
2018-02-13T12:00:05.294Z,100597.25
2018-02-13T12:02:37.784Z,100603.39
2018-02-13T12:05:10.300Z,100598.16
2018-02-13T12:07:42.790Z,100588.30
2018-02-13T12:10:15.301Z,100595.45
2018-02-13T12:12:47.802Z,100593.10
2018-02-13T12:15:20.330Z,100591.10
2018-02-13T12:17:52.822Z,100593.42
2018-02-13T12:20:25.339Z,100587.42
2018-02-13T12:22:57.833Z,100582.09
2018-02-13T12:25:42.204Z,100585.08
2018-02-13T12:28:14.675Z,100581.90
2018-02-13T12:30:47.213Z,100581.23
2018-02-13T12:33:19.739Z,100585.27
2018-02-13T12:35:52.251Z,100575.69
2018-02-13T12:38:24.735Z,100578.58
2018-02-13T12:40:57.250Z,100578.06
2018-02-13T12:43:29.808Z,100581.43
2018-02-13T12:46:02.305Z,100572.52
2018-02-13T12:48:34.802Z,100568.50
2018-02-13T12:51:07.327Z,100560.66
2018-02-13T12:53:39.820Z,100562.09
2018-02-13T12:56:12.333Z,100557.31
2018-02-13T12:58:44.821Z,100555.61
2018-02-13T13:01:17.327Z,100556.57
2018-02-13T13:03:49.822Z,100557.58
2018-02-13T13:06:22.332Z,100552.56
2018-02-13T13:08:54.830Z,100551.22
2018-02-13T13:11:27.341Z,100550.17
2018-02-13T13:13:59.832Z,100546.07
2018-02-13T13:16:32.353Z,100544.70
2018-02-13T13:19:04.860Z,100546.16
2018-02-13T13:21:37.372Z,100538.95
2018-02-13T13:24:09.861Z,100535.30
2018-02-13T13:26:42.363Z,100531.50
2018-02-13T13:29:14.857Z,100529.75
2018-02-13T13:31:47.373Z,100530.06
2018-02-13T13:34:19.886Z,100530.62
2018-02-13T13:36:52.391Z,100521.12
2018-02-13T13:39:24.881Z,100524.34
2018-02-13T13:41:57.413Z,100518.69
2018-02-13T13:44:29.928Z,100523.20
2018-02-13T13:47:02.451Z,100523.02
2018-02-13T13:49:34.944Z,100517.64
2018-02-13T13:52:07.464Z,100511.59
2018-02-13T13:54:39.964Z,100512.00
2018-02-13T13:57:12.486Z,100507.74
2018-02-13T13:59:44.967Z,100502.28
2018-02-13T14:02:17.468Z,100507.45
2018-02-13T14:04:49.956Z,100506.02
2018-02-13T14:07:22.519Z,100506.47
2018-02-13T14:09:54.995Z,100504.98
2018-02-13T14:12:27.521Z,100506.67
2018-02-13T14:15:00.024Z,100507.28
2018-02-13T14:17:34.296Z,100502.81
2018-02-13T14:20:06.790Z,100501.85
2018-02-13T14:22:40.494Z,100503.83
2018-02-13T14:25:13.017Z,100502.81
2018-02-13T14:27:45.514Z,100505.75
2018-02-13T14:30:18.017Z,100512.45
2018-02-13T14:32:50.504Z,100516.42
2018-02-13T14:35:23.034Z,100506.08
2018-02-13T14:37:55.516Z,100508.98
2018-02-13T14:40:28.031Z,100515.55
2018-02-13T14:43:00.518Z,100514.20
2018-02-13T14:45:33.017Z,100514.29
2018-02-13T14:48:05.615Z,100519.97
2018-02-13T14:50:38.138Z,100520.34
2018-02-13T14:53:10.623Z,100510.80
2018-02-13T14:55:43.131Z,100520.02
2018-02-13T14:58:16.062Z,100510.70
2018-02-13T15:00:48.886Z,100516.28
2018-02-13T15:03:21.394Z,100513.07
2018-02-13T15:05:53.912Z,100518.23
2018-02-13T15:08:26.411Z,100514.04
2018-02-13T15:10:58.911Z,100515.80
2018-02-13T15:13:31.401Z,100524.17
2018-02-13T15:16:03.920Z,100527.94
2018-02-13T15:18:36.471Z,100527.98
2018-02-13T15:21:08.964Z,100533.58
2018-02-13T15:23:41.455Z,100534.12
2018-02-13T15:26:13.970Z,100538.33
2018-02-13T15:28:46.502Z,100539.13
2018-02-13T15:31:19.009Z,100539.61
2018-02-13T15:33:51.494Z,100540.00
2018-02-13T15:36:24.009Z,100549.23
2018-02-13T15:38:56.523Z,100550.58
2018-02-13T15:41:29.040Z,100551.91
2018-02-13T15:44:01.536Z,100549.03
2018-02-13T15:46:34.082Z,100548.19
2018-02-13T15:49:06.577Z,100548.31
2018-02-13T15:51:39.136Z,100549.23
2018-02-13T15:54:11.682Z,100553.08
2018-02-13T15:56:44.193Z,100552.72
2018-02-13T15:59:16.705Z,100561.60
2018-02-13T16:01:49.325Z,100559.16
2018-02-13T16:04:21.817Z,100560.87
2018-02-13T16:06:54.326Z,100567.22
2018-02-13T16:09:26.885Z,100567.23
2018-02-13T16:11:59.394Z,100571.48
2018-02-13T16:14:31.885Z,100572.36
2018-02-13T16:17:04.791Z,100580.00
2018-02-13T16:19:37.366Z,100583.82
2018-02-13T16:22:09.875Z,100580.89
2018-02-13T16:24:42.636Z,100589.83
2018-02-13T16:27:16.510Z,100588.57
2018-02-13T16:29:49.372Z,100588.59
2018-02-13T16:32:24.741Z,100587.31
2018-02-13T16:34:57.249Z,100589.81
2018-02-13T16:37:33.011Z,100587.72
2018-02-13T16:40:06.080Z,100588.98
2018-02-13T16:42:38.594Z,100591.08
2018-02-13T16:45:14.652Z,100592.34
2018-02-13T16:47:47.265Z,100593.16
2018-02-13T16:50:19.850Z,100590.63
2018-02-13T16:52:53.034Z,100591.84
2018-02-13T16:55:27.783Z,100588.45
2018-02-13T16:58:00.318Z,100591.41
2018-02-13T17:00:37.691Z,100601.09
2018-02-13T17:03:10.254Z,100596.84
2018-02-13T17:05:42.791Z,100601.03
2018-02-13T17:08:15.307Z,100598.06
2018-02-13T17:10:47.816Z,100606.09
2018-02-13T17:13:20.337Z,100601.83
2018-02-13T17:15:52.857Z,100602.66
2018-02-13T17:18:25.375Z,100605.59
2018-02-13T17:20:57.866Z,100605.59
2018-02-13T17:23:30.388Z,100614.43
2018-02-13T17:26:02.878Z,100610.62
2018-02-13T17:28:35.402Z,100613.55
2018-02-13T17:31:07.902Z,100613.53
2018-02-13T17:33:40.426Z,100613.95
2018-02-13T17:36:12.917Z,100612.66
2018-02-13T17:38:45.441Z,100615.12
2018-02-13T17:41:17.975Z,100618.50
2018-02-13T17:43:50.546Z,100616.41
2018-02-13T17:46:23.096Z,100614.27
2018-02-13T17:48:55.595Z,100620.17
2018-02-13T17:51:28.135Z,100627.70
2018-02-13T17:54:00.633Z,100626.84
2018-02-13T17:59:11.949Z,100626.40
2018-02-13T18:01:44.692Z,100633.11
2018-02-13T18:04:17.200Z,100633.05
2018-02-13T18:06:49.729Z,100628.40
2018-02-13T18:09:22.237Z,100633.87
2018-02-13T18:11:54.753Z,100628.40
2018-02-13T18:14:27.301Z,100628.38
2018-02-13T18:16:59.835Z,100629.61
2018-02-13T18:19:32.335Z,100624.50
2018-02-13T18:22:04.846Z,100626.52
2018-02-13T18:24:37.348Z,100629.43
2018-02-13T18:27:09.873Z,100627.33
2018-02-13T18:29:42.364Z,100630.25
2018-02-13T18:32:14.896Z,100634.45
2018-02-13T18:34:47.410Z,100634.84
2018-02-13T18:37:20.006Z,100640.34
2018-02-13T18:39:52.506Z,100645.34
2018-02-13T18:42:25.026Z,100641.13
2018-02-13T18:44:57.525Z,100634.78
2018-02-13T18:47:30.059Z,100643.62
2018-02-13T18:50:02.572Z,100639.80
2018-02-13T18:55:07.559Z,100644.81
2018-02-13T18:57:40.080Z,100644.81
2018-02-13T19:00:13.595Z,100646.04
2018-02-13T19:02:46.109Z,100649.89
2018-02-13T19:05:18.994Z,100652.00
2018-02-13T19:07:57.858Z,100651.55
2018-02-13T19:10:31.023Z,100652.34
2018-02-13T19:13:03.602Z,100653.08
2018-02-13T19:15:36.112Z,100658.09
2018-02-13T19:18:08.712Z,100655.95
2018-02-13T19:20:41.238Z,100661.84
2018-02-13T19:23:13.794Z,100659.70
2018-02-13T19:25:46.284Z,100656.26
2018-02-13T19:28:18.811Z,100658.78
2018-02-13T19:30:51.305Z,100663.41
2018-02-13T19:33:23.832Z,100659.59
2018-02-13T19:35:56.333Z,100661.27
2018-02-13T19:38:28.849Z,100662.07
2018-02-13T19:41:01.357Z,100657.83
2018-02-13T19:43:33.867Z,100659.50
2018-02-13T19:46:06.440Z,100662.86
2018-02-13T19:48:38.964Z,100664.93
2018-02-13T19:51:11.545Z,100653.11
2018-02-13T19:53:44.073Z,100664.04
2018-02-13T19:56:16.582Z,100661.48
2018-02-13T19:58:49.105Z,100665.17
2018-02-13T20:01:21.625Z,100667.70
2018-02-13T20:03:54.151Z,100668.16
2018-02-13T20:06:26.646Z,100674.47
2018-02-13T20:08:59.166Z,100670.64
2018-02-13T20:11:31.685Z,100673.16
2018-02-13T20:14:04.212Z,100678.12
2018-02-13T20:16:36.722Z,100684.84
2018-02-13T20:19:09.869Z,100683.91
2018-02-13T20:21:42.377Z,100683.06
2018-02-13T20:24:15.947Z,100683.81
2018-02-13T20:26:48.840Z,100691.38
2018-02-13T20:29:21.353Z,100685.55
2018-02-13T20:31:53.878Z,100693.15
2018-02-13T20:34:28.356Z,100701.52
2018-02-13T20:37:00.924Z,100704.92
2018-02-13T20:39:33.724Z,100701.14
2018-02-13T20:42:06.256Z,100705.76
2018-02-13T20:44:38.778Z,100703.23
2018-02-13T20:47:11.277Z,100699.41
2018-02-13T20:49:43.796Z,100709.03
2018-02-13T20:52:16.287Z,100704.77
2018-02-13T20:54:51.282Z,100705.57
2018-02-13T20:57:25.576Z,100696.28
2018-02-13T21:00:01.451Z,100703.41
2018-02-13T21:02:34.054Z,100699.58
2018-02-13T21:05:06.608Z,100705.05
2018-02-13T21:07:41.276Z,100707.09
2018-02-13T21:10:22.275Z,100707.42
2018-02-13T21:12:58.603Z,100709.94
2018-02-13T21:15:31.230Z,100715.39
2018-02-13T21:18:04.051Z,100712.87
2018-02-13T21:20:36.549Z,100712.82
2018-02-13T21:23:09.091Z,100723.33
2018-02-13T21:25:41.593Z,100726.67
2018-02-13T21:28:14.114Z,100717.01
2018-02-13T21:30:46.613Z,100715.30
2018-02-13T21:33:19.171Z,100723.69
2018-02-13T21:35:51.695Z,100719.81
2018-02-13T21:38:24.216Z,100721.89
2018-02-13T21:40:56.722Z,100728.13
2018-02-13T21:43:29.407Z,100720.94
2018-02-13T21:46:01.906Z,100723.41
2018-02-13T21:48:34.453Z,100734.33
2018-02-13T21:51:06.986Z,100730.12
2018-02-13T21:53:39.568Z,100726.72
2018-02-13T21:56:12.059Z,100727.97
2018-02-13T21:58:44.589Z,100728.39
2018-02-13T22:01:17.162Z,100723.71
2018-02-13T22:03:49.683Z,100721.55
2018-02-13T22:06:22.175Z,100726.52
2018-02-13T22:08:54.686Z,100731.14
2018-02-13T22:11:27.248Z,100722.70
2018-02-13T22:13:59.790Z,100729.42
2018-02-13T22:16:32.293Z,100728.16
2018-02-13T22:19:04.816Z,100730.59
2018-02-13T22:21:37.305Z,100734.31
2018-02-13T22:24:09.823Z,100733.01
2018-02-13T22:26:43.447Z,100727.54
2018-02-13T22:29:16.683Z,100732.95
2018-02-13T22:31:49.277Z,100737.91
2018-02-13T22:34:21.807Z,100742.47
2018-02-13T22:36:54.311Z,100742.05
2018-02-13T22:39:26.827Z,100750.39
2018-02-13T22:41:59.332Z,100741.50
2018-02-13T22:44:32.527Z,100747.39
2018-02-13T22:47:06.496Z,100747.33
2018-02-13T22:49:39.876Z,100747.25
2018-02-13T22:52:12.377Z,100751.02
2018-02-13T22:54:44.904Z,100754.73
2018-02-13T22:57:17.392Z,100750.95
2018-02-13T22:59:49.917Z,100755.52
2018-02-13T23:02:22.420Z,100757.61
2018-02-13T23:04:54.995Z,100753.34
2018-02-13T23:07:27.479Z,100760.84
2018-02-13T23:09:59.997Z,100754.52
2018-02-13T23:12:32.493Z,100755.72
2018-02-13T23:15:05.000Z,100761.52
2018-02-13T23:17:37.500Z,100770.34
2018-02-13T23:20:10.032Z,100768.08
2018-02-13T23:22:42.547Z,100765.66
2018-02-13T23:25:15.074Z,100767.67
2018-02-13T23:27:47.594Z,100769.70
2018-02-13T23:30:20.108Z,100774.25
2018-02-13T23:32:52.632Z,100779.34
2018-02-13T23:35:25.156Z,100768.80
2018-02-13T23:37:57.688Z,100771.70
2018-02-13T23:40:30.206Z,100770.91
2018-02-13T23:43:02.714Z,100768.31
2018-02-13T23:45:35.229Z,100778.64
2018-02-13T23:48:07.732Z,100778.57
2018-02-13T23:50:40.235Z,100782.41
2018-02-13T23:53:12.752Z,100790.04
2018-02-13T23:55:45.276Z,100784.56
2018-02-13T23:58:17.798Z,100785.83
